sensor_id;sensor_type;location;lat;lon;timestamp;P1;durP1;ratioP1;P2;durP2;ratioP2
79147;SDS011;68562;51.600;6.524;2023-05-01T00:00:00;5.7;;;2.3;;
79147;SDS011;68562;51.600;6.524;2023-05-01T00:05:00;5.6;;;2.1;;
79147;SDS011;68562;51.600;6.524;2023-05-01T00:10:00;4.1;;;2.3;;
79147;SDS011;68562;51.600;6.524;2023-05-01T00:15:00;6.8;;;2.5;;
79147;SDS011;68562;51.600;6.524;2023-05-01T00:20:00;4.5;;;1.6;;
79147;SDS011;68562;51.600;6.524;2023-05-01T00:25:00;2.8;;;2.2;;
79147;SDS011;68562;51.600;6.524;2023-05-01T00:30:00;4.3;;;2.1;;
79147;SDS011;68562;51.600;6.524;2023-05-01T00:35:00;7.3;;;2.3;;
79147;SDS011;68562;51.600;6.524;2023-05-01T00:40:00;3.5;;;2.3;;
79147;SDS011;68562;51.600;6.524;2023-05-01T00:45:00;5.7;;;2.7;;
79147;SDS011;68562;51.600;6.524;2023-05-01T00:50:00;5.3;;;2.7;;
79147;SDS011;68562;51.600;6.524;2023-05-01T00:55:00;4.7;;;2.3;;
79147;SDS011;68562;51.600;6.524;2023-05-01T01:00:00;4.2;;;2.3;;
79147;SDS011;68562;51.600;6.524;2023-05-01T01:05:00;4.7;;;2.4;;
79147;SDS011;68562;51.600;6.524;2023-05-01T01:10:01;3.9;;;2.0;;
79147;SDS011;68562;51.600;6.524;2023-05-01T01:15:01;7.2;;;3.4;;
79147;SDS011;68562;51.600;6.524;2023-05-01T01:30:05;3.3;;;2.4;;
79147;SDS011;68562;51.600;6.524;2023-05-01T01:35:00;6.2;;;2.6;;
79147;SDS011;68562;51.600;6.524;2023-05-01T01:40:01;3.4;;;2.6;;
79147;SDS011;68562;51.600;6.524;2023-05-01T01:45:00;6.7;;;2.4;;
79147;SDS011;68562;51.600;6.524;2023-05-01T01:50:03;5.4;;;2.8;;
79147;SDS011;68562;51.600;6.524;2023-05-01T01:55:01;4.1;;;2.4;;
79147;SDS011;68562;51.600;6.524;2023-05-01T02:00:00;6.5;;;2.8;;
79147;SDS011;68562;51.600;6.524;2023-05-01T02:05:00;6.6;;;3.3;;
79147;SDS011;68562;51.600;6.524;2023-05-01T02:10:00;7.2;;;2.8;;
79147;SDS011;68562;51.600;6.524;2023-05-01T02:15:00;4.6;;;2.9;;
79147;SDS011;68562;51.600;6.524;2023-05-01T02:20:00;5.4;;;3.0;;
79147;SDS011;68562;51.600;6.524;2023-05-01T02:25:00;5.8;;;3.1;;
79147;SDS011;68562;51.600;6.524;2023-05-01T02:30:00;4.5;;;2.7;;
79147;SDS011;68562;51.600;6.524;2023-05-01T02:35:00;4.8;;;3.0;;
79147;SDS011;68562;51.600;6.524;2023-05-01T02:40:00;5.8;;;3.2;;
79147;SDS011;68562;51.600;6.524;2023-05-01T02:45:01;6.2;;;3.5;;
79147;SDS011;68562;51.600;6.524;2023-05-01T02:50:00;6.6;;;2.7;;
79147;SDS011;68562;51.600;6.524;2023-05-01T02:55:00;9.1;;;3.6;;
79147;SDS011;68562;51.600;6.524;2023-05-01T03:00:00;4.9;;;2.8;;
79147;SDS011;68562;51.600;6.524;2023-05-01T03:05:00;4.7;;;3.0;;
79147;SDS011;68562;51.600;6.524;2023-05-01T03:10:00;6.5;;;3.1;;
79147;SDS011;68562;51.600;6.524;2023-05-01T03:15:00;4.7;;;2.7;;
79147;SDS011;68562;51.600;6.524;2023-05-01T03:20:00;6.1;;;2.9;;
79147;SDS011;68562;51.600;6.524;2023-05-01T03:25:00;5.5;;;3.5;;
79147;SDS011;68562;51.600;6.524;2023-05-01T03:30:00;7.1;;;3.0;;
79147;SDS011;68562;51.600;6.524;2023-05-01T03:35:00;5.0;;;3.6;;
79147;SDS011;68562;51.600;6.524;2023-05-01T03:40:00;5.0;;;2.9;;
79147;SDS011;68562;51.600;6.524;2023-05-01T03:45:00;5.1;;;3.1;;
79147;SDS011;68562;51.600;6.524;2023-05-01T03:50:00;6.1;;;2.7;;
79147;SDS011;68562;51.600;6.524;2023-05-01T03:55:00;4.8;;;3.1;;
79147;SDS011;68562;51.600;6.524;2023-05-01T04:00:00;6.8;;;3.2;;
79147;SDS011;68562;51.600;6.524;2023-05-01T04:05:00;6.3;;;2.6;;
79147;SDS011;68562;51.600;6.524;2023-05-01T04:10:00;6.6;;;3.0;;
79147;SDS011;68562;51.600;6.524;2023-05-01T04:15:00;6.0;;;3.5;;
79147;SDS011;68562;51.600;6.524;2023-05-01T04:20:00;6.4;;;3.6;;
79147;SDS011;68562;51.600;6.524;2023-05-01T04:25:00;6.8;;;3.8;;
79147;SDS011;68562;51.600;6.524;2023-05-01T04:30:00;5.0;;;2.9;;
79147;SDS011;68562;51.600;6.524;2023-05-01T04:35:00;5.7;;;3.3;;
79147;SDS011;68562;51.600;6.524;2023-05-01T04:40:00;4.2;;;3.0;;
79147;SDS011;68562;51.600;6.524;2023-05-01T04:45:00;5.4;;;3.5;;
79147;SDS011;68562;51.600;6.524;2023-05-01T04:50:00;5.3;;;3.4;;
79147;SDS011;68562;51.600;6.524;2023-05-01T04:55:00;8.8;;;4.6;;
79147;SDS011;68562;51.600;6.524;2023-05-01T05:00:00;5.5;;;3.7;;
79147;SDS011;68562;51.600;6.524;2023-05-01T05:05:00;11.5;;;4.0;;
79147;SDS011;68562;51.600;6.524;2023-05-01T05:10:00;5.4;;;3.8;;
79147;SDS011;68562;51.600;6.524;2023-05-01T05:15:00;6.7;;;4.4;;
79147;SDS011;68562;51.600;6.524;2023-05-01T05:20:00;8.0;;;4.1;;
79147;SDS011;68562;51.600;6.524;2023-05-01T05:25:00;8.3;;;4.6;;
79147;SDS011;68562;51.600;6.524;2023-05-01T05:30:00;12.2;;;5.2;;
79147;SDS011;68562;51.600;6.524;2023-05-01T05:35:00;19.2;;;9.1;;
79147;SDS011;68562;51.600;6.524;2023-05-01T05:40:00;8.4;;;4.3;;
79147;SDS011;68562;51.600;6.524;2023-05-01T05:45:00;6.4;;;3.9;;
79147;SDS011;68562;51.600;6.524;2023-05-01T05:50:00;6.5;;;3.4;;
79147;SDS011;68562;51.600;6.524;2023-05-01T05:55:00;8.8;;;3.6;;
79147;SDS011;68562;51.600;6.524;2023-05-01T06:00:00;5.6;;;3.4;;
79147;SDS011;68562;51.600;6.524;2023-05-01T06:05:00;8.4;;;4.0;;
79147;SDS011;68562;51.600;6.524;2023-05-01T06:10:00;6.1;;;3.3;;
79147;SDS011;68562;51.600;6.524;2023-05-01T06:15:00;7.5;;;3.8;;
79147;SDS011;68562;51.600;6.524;2023-05-01T06:20:00;8.0;;;3.9;;
79147;SDS011;68562;51.600;6.524;2023-05-01T06:25:00;7.2;;;3.6;;
79147;SDS011;68562;51.600;6.524;2023-05-01T06:30:00;4.7;;;3.1;;
79147;SDS011;68562;51.600;6.524;2023-05-01T06:35:00;6.2;;;3.7;;
79147;SDS011;68562;51.600;6.524;2023-05-01T06:40:00;6.1;;;3.9;;
79147;SDS011;68562;51.600;6.524;2023-05-01T06:45:00;7.1;;;4.0;;
79147;SDS011;68562;51.600;6.524;2023-05-01T06:50:00;9.0;;;4.1;;
79147;SDS011;68562;51.600;6.524;2023-05-01T06:55:00;6.6;;;4.4;;
79147;SDS011;68562;51.600;6.524;2023-05-01T07:00:00;6.1;;;3.8;;
79147;SDS011;68562;51.600;6.524;2023-05-01T07:05:00;7.6;;;4.6;;
79147;SDS011;68562;51.600;6.524;2023-05-01T07:10:00;9.5;;;3.9;;
79147;SDS011;68562;51.600;6.524;2023-05-01T07:15:00;6.3;;;3.8;;
79147;SDS011;68562;51.600;6.524;2023-05-01T07:20:00;5.8;;;3.4;;
79147;SDS011;68562;51.600;6.524;2023-05-01T07:25:00;4.4;;;3.1;;
79147;SDS011;68562;51.600;6.524;2023-05-01T07:30:00;5.0;;;3.1;;
79147;SDS011;68562;51.600;6.524;2023-05-01T07:35:00;6.7;;;4.3;;
79147;SDS011;68562;51.600;6.524;2023-05-01T07:40:00;5.6;;;3.4;;
79147;SDS011;68562;51.600;6.524;2023-05-01T07:45:00;4.6;;;2.9;;
79147;SDS011;68562;51.600;6.524;2023-05-01T07:50:00;4.1;;;3.1;;
79147;SDS011;68562;51.600;6.524;2023-05-01T07:55:00;4.0;;;2.6;;
79147;SDS011;68562;51.600;6.524;2023-05-01T08:00:00;5.5;;;2.7;;
79147;SDS011;68562;51.600;6.524;2023-05-01T08:05:00;6.5;;;2.9;;
79147;SDS011;68562;51.600;6.524;2023-05-01T08:10:00;3.9;;;3.5;;
79147;SDS011;68562;51.600;6.524;2023-05-01T08:15:00;4.2;;;2.9;;
79147;SDS011;68562;51.600;6.524;2023-05-01T08:20:00;8.0;;;3.3;;
79147;SDS011;68562;51.600;6.524;2023-05-01T08:25:00;3.5;;;2.8;;
79147;SDS011;68562;51.600;6.524;2023-05-01T08:30:00;4.4;;;2.9;;
79147;SDS011;68562;51.600;6.524;2023-05-01T08:35:00;4.4;;;2.8;;
79147;SDS011;68562;51.600;6.524;2023-05-01T08:40:00;4.7;;;2.7;;
79147;SDS011;68562;51.600;6.524;2023-05-01T08:45:00;5.7;;;2.7;;
79147;SDS011;68562;51.600;6.524;2023-05-01T08:50:00;3.8;;;2.4;;
79147;SDS011;68562;51.600;6.524;2023-05-01T08:55:00;3.1;;;2.5;;
79147;SDS011;68562;51.600;6.524;2023-05-01T09:00:00;2.9;;;2.0;;
79147;SDS011;68562;51.600;6.524;2023-05-01T09:05:00;6.3;;;2.3;;
79147;SDS011;68562;51.600;6.524;2023-05-01T09:10:00;3.2;;;2.1;;
79147;SDS011;68562;51.600;6.524;2023-05-01T09:15:01;3.8;;;2.5;;
79147;SDS011;68562;51.600;6.524;2023-05-01T09:20:00;2.6;;;2.2;;
79147;SDS011;68562;51.600;6.524;2023-05-01T09:25:00;2.6;;;2.1;;
79147;SDS011;68562;51.600;6.524;2023-05-01T09:30:00;2.9;;;2.4;;
79147;SDS011;68562;51.600;6.524;2023-05-01T09:40:01;2.9;;;1.7;;
79147;SDS011;68562;51.600;6.524;2023-05-01T09:45:00;3.6;;;2.0;;
79147;SDS011;68562;51.600;6.524;2023-05-01T09:50:00;4.5;;;1.8;;
79147;SDS011;68562;51.600;6.524;2023-05-01T10:00:02;3.9;;;2.0;;
79147;SDS011;68562;51.600;6.524;2023-05-01T10:05:00;5.8;;;2.1;;
79147;SDS011;68562;51.600;6.524;2023-05-01T10:15:00;3.2;;;2.0;;
79147;SDS011;68562;51.600;6.524;2023-05-01T10:20:00;2.3;;;2.1;;
79147;SDS011;68562;51.600;6.524;2023-05-01T10:25:00;2.6;;;1.8;;
79147;SDS011;68562;51.600;6.524;2023-05-01T10:30:01;3.2;;;2.6;;
79147;SDS011;68562;51.600;6.524;2023-05-01T10:35:01;3.3;;;1.9;;
79147;SDS011;68562;51.600;6.524;2023-05-01T10:40:04;1.9;;;1.7;;
79147;SDS011;68562;51.600;6.524;2023-05-01T10:50:01;3.5;;;2.7;;
79147;SDS011;68562;51.600;6.524;2023-05-01T11:00:09;4.4;;;2.4;;
79147;SDS011;68562;51.600;6.524;2023-05-01T11:05:00;3.7;;;2.2;;
79147;SDS011;68562;51.600;6.524;2023-05-01T11:10:00;3.1;;;2.6;;
79147;SDS011;68562;51.600;6.524;2023-05-01T11:15:00;4.2;;;3.4;;
79147;SDS011;68562;51.600;6.524;2023-05-01T11:20:00;3.9;;;2.7;;
79147;SDS011;68562;51.600;6.524;2023-05-01T11:25:00;2.9;;;2.5;;
79147;SDS011;68562;51.600;6.524;2023-05-01T11:30:00;3.2;;;2.4;;
79147;SDS011;68562;51.600;6.524;2023-05-01T11:35:00;2.9;;;2.5;;
79147;SDS011;68562;51.600;6.524;2023-05-01T11:40:00;5.9;;;2.8;;
79147;SDS011;68562;51.600;6.524;2023-05-01T11:45:07;3.7;;;2.3;;
79147;SDS011;68562;51.600;6.524;2023-05-01T11:50:00;5.1;;;2.7;;
79147;SDS011;68562;51.600;6.524;2023-05-01T11:55:00;4.8;;;2.6;;
79147;SDS011;68562;51.600;6.524;2023-05-01T12:00:00;4.2;;;2.4;;
79147;SDS011;68562;51.600;6.524;2023-05-01T12:10:00;2.9;;;1.6;;
79147;SDS011;68562;51.600;6.524;2023-05-01T12:15:00;2.5;;;1.2;;
79147;SDS011;68562;51.600;6.524;2023-05-01T12:20:00;2.5;;;1.2;;
79147;SDS011;68562;51.600;6.524;2023-05-01T12:25:00;1.7;;;1.3;;
79147;SDS011;68562;51.600;6.524;2023-05-01T12:30:00;4.0;;;1.4;;
79147;SDS011;68562;51.600;6.524;2023-05-01T12:35:06;2.8;;;1.7;;
79147;SDS011;68562;51.600;6.524;2023-05-01T12:40:00;2.1;;;1.3;;
79147;SDS011;68562;51.600;6.524;2023-05-01T12:45:00;3.8;;;1.4;;
79147;SDS011;68562;51.600;6.524;2023-05-01T12:50:01;3.2;;;2.0;;
79147;SDS011;68562;51.600;6.524;2023-05-01T12:55:00;3.7;;;1.8;;
79147;SDS011;68562;51.600;6.524;2023-05-01T13:00:01;2.4;;;0.9;;
79147;SDS011;68562;51.600;6.524;2023-05-01T13:05:08;1.8;;;1.1;;
79147;SDS011;68562;51.600;6.524;2023-05-01T13:10:00;2.5;;;1.1;;
79147;SDS011;68562;51.600;6.524;2023-05-01T13:15:00;1.3;;;0.8;;
79147;SDS011;68562;51.600;6.524;2023-05-01T13:20:01;1.0;;;0.9;;
79147;SDS011;68562;51.600;6.524;2023-05-01T13:25:00;0.6;;;0.6;;
79147;SDS011;68562;51.600;6.524;2023-05-01T13:30:00;0.8;;;0.7;;
79147;SDS011;68562;51.600;6.524;2023-05-01T13:35:00;1.7;;;0.7;;
79147;SDS011;68562;51.600;6.524;2023-05-01T13:40:00;1.0;;;0.7;;
79147;SDS011;68562;51.600;6.524;2023-05-01T13:45:00;0.7;;;0.7;;
79147;SDS011;68562;51.600;6.524;2023-05-01T13:50:00;2.0;;;0.9;;
79147;SDS011;68562;51.600;6.524;2023-05-01T13:55:00;4.0;;;1.1;;
79147;SDS011;68562;51.600;6.524;2023-05-01T14:00:00;2.4;;;1.1;;
79147;SDS011;68562;51.600;6.524;2023-05-01T14:05:00;3.3;;;1.6;;
79147;SDS011;68562;51.600;6.524;2023-05-01T14:10:00;1.7;;;1.4;;
79147;SDS011;68562;51.600;6.524;2023-05-01T14:15:00;4.1;;;2.3;;
79147;SDS011;68562;51.600;6.524;2023-05-01T14:20:00;3.9;;;2.3;;
79147;SDS011;68562;51.600;6.524;2023-05-01T14:25:01;2.6;;;1.9;;
79147;SDS011;68562;51.600;6.524;2023-05-01T14:30:00;3.8;;;2.4;;
79147;SDS011;68562;51.600;6.524;2023-05-01T14:35:00;4.0;;;3.1;;
79147;SDS011;68562;51.600;6.524;2023-05-01T14:40:00;6.1;;;3.3;;
79147;SDS011;68562;51.600;6.524;2023-05-01T14:45:00;5.3;;;2.8;;
79147;SDS011;68562;51.600;6.524;2023-05-01T14:50:00;4.7;;;2.7;;
79147;SDS011;68562;51.600;6.524;2023-05-01T14:55:00;4.7;;;3.4;;
79147;SDS011;68562;51.600;6.524;2023-05-01T15:00:00;4.4;;;3.4;;
79147;SDS011;68562;51.600;6.524;2023-05-01T15:05:00;3.2;;;2.6;;
79147;SDS011;68562;51.600;6.524;2023-05-01T15:10:00;4.0;;;2.9;;
79147;SDS011;68562;51.600;6.524;2023-05-01T15:15:00;3.7;;;2.5;;
79147;SDS011;68562;51.600;6.524;2023-05-01T15:20:00;4.4;;;2.9;;
79147;SDS011;68562;51.600;6.524;2023-05-01T15:25:00;3.4;;;2.7;;
79147;SDS011;68562;51.600;6.524;2023-05-01T15:30:00;6.4;;;3.0;;
79147;SDS011;68562;51.600;6.524;2023-05-01T15:35:00;1.9;;;1.6;;
79147;SDS011;68562;51.600;6.524;2023-05-01T15:40:00;5.3;;;1.7;;
79147;SDS011;68562;51.600;6.524;2023-05-01T15:45:01;1.9;;;1.6;;
79147;SDS011;68562;51.600;6.524;2023-05-01T15:50:00;2.9;;;2.2;;
79147;SDS011;68562;51.600;6.524;2023-05-01T15:55:00;2.1;;;1.7;;
79147;SDS011;68562;51.600;6.524;2023-05-01T16:00:00;2.3;;;1.8;;
79147;SDS011;68562;51.600;6.524;2023-05-01T16:05:00;1.4;;;1.0;;
79147;SDS011;68562;51.600;6.524;2023-05-01T16:10:00;5.3;;;4.8;;
79147;SDS011;68562;51.600;6.524;2023-05-01T16:15:00;1.5;;;1.3;;
79147;SDS011;68562;51.600;6.524;2023-05-01T16:20:00;1.6;;;1.3;;
79147;SDS011;68562;51.600;6.524;2023-05-01T16:25:00;7.7;;;2.8;;
79147;SDS011;68562;51.600;6.524;2023-05-01T16:30:01;2.7;;;2.1;;
79147;SDS011;68562;51.600;6.524;2023-05-01T16:35:00;2.2;;;1.8;;
79147;SDS011;68562;51.600;6.524;2023-05-01T16:40:00;1.4;;;1.2;;
79147;SDS011;68562;51.600;6.524;2023-05-01T16:45:00;1.9;;;1.7;;
79147;SDS011;68562;51.600;6.524;2023-05-01T16:50:00;5.1;;;3.3;;
79147;SDS011;68562;51.600;6.524;2023-05-01T16:55:00;4.1;;;3.4;;
79147;SDS011;68562;51.600;6.524;2023-05-01T17:00:00;5.1;;;3.4;;
79147;SDS011;68562;51.600;6.524;2023-05-01T17:05:00;5.3;;;3.0;;
79147;SDS011;68562;51.600;6.524;2023-05-01T17:10:00;3.9;;;2.5;;
79147;SDS011;68562;51.600;6.524;2023-05-01T17:15:00;5.4;;;2.9;;
79147;SDS011;68562;51.600;6.524;2023-05-01T17:20:00;3.3;;;2.6;;
79147;SDS011;68562;51.600;6.524;2023-05-01T17:25:00;3.8;;;3.4;;
79147;SDS011;68562;51.600;6.524;2023-05-01T17:30:00;4.2;;;3.9;;
79147;SDS011;68562;51.600;6.524;2023-05-01T17:35:00;4.0;;;3.6;;
79147;SDS011;68562;51.600;6.524;2023-05-01T17:40:00;4.6;;;3.6;;
79147;SDS011;68562;51.600;6.524;2023-05-01T17:45:00;5.1;;;3.5;;
79147;SDS011;68562;51.600;6.524;2023-05-01T17:50:00;5.3;;;4.3;;
79147;SDS011;68562;51.600;6.524;2023-05-01T17:55:00;5.8;;;3.2;;
79147;SDS011;68562;51.600;6.524;2023-05-01T18:00:00;6.7;;;3.6;;
79147;SDS011;68562;51.600;6.524;2023-05-01T18:05:00;4.4;;;3.9;;
79147;SDS011;68562;51.600;6.524;2023-05-01T18:10:00;5.7;;;4.4;;
79147;SDS011;68562;51.600;6.524;2023-05-01T18:15:00;5.7;;;4.5;;
79147;SDS011;68562;51.600;6.524;2023-05-01T18:20:00;6.3;;;3.9;;
79147;SDS011;68562;51.600;6.524;2023-05-01T18:25:00;6.1;;;4.2;;
79147;SDS011;68562;51.600;6.524;2023-05-01T18:30:00;6.3;;;4.3;;
79147;SDS011;68562;51.600;6.524;2023-05-01T18:35:00;6.7;;;4.4;;
79147;SDS011;68562;51.600;6.524;2023-05-01T18:40:00;5.7;;;3.8;;
79147;SDS011;68562;51.600;6.524;2023-05-01T18:45:00;5.1;;;4.1;;
79147;SDS011;68562;51.600;6.524;2023-05-01T18:50:00;7.9;;;5.0;;
79147;SDS011;68562;51.600;6.524;2023-05-01T18:55:00;6.9;;;4.9;;
79147;SDS011;68562;51.600;6.524;2023-05-01T19:00:00;8.1;;;5.2;;
79147;SDS011;68562;51.600;6.524;2023-05-01T19:05:00;6.1;;;4.2;;
79147;SDS011;68562;51.600;6.524;2023-05-01T19:10:00;7.3;;;5.0;;
79147;SDS011;68562;51.600;6.524;2023-05-01T19:15:00;7.4;;;5.2;;
79147;SDS011;68562;51.600;6.524;2023-05-01T19:20:00;7.8;;;4.5;;
79147;SDS011;68562;51.600;6.524;2023-05-01T19:25:00;7.1;;;4.8;;
79147;SDS011;68562;51.600;6.524;2023-05-01T19:30:00;17.1;;;4.9;;
79147;SDS011;68562;51.600;6.524;2023-05-01T19:35:00;5.8;;;4.1;;
79147;SDS011;68562;51.600;6.524;2023-05-01T19:40:00;8.4;;;5.6;;
79147;SDS011;68562;51.600;6.524;2023-05-01T19:45:00;8.6;;;4.9;;
79147;SDS011;68562;51.600;6.524;2023-05-01T19:50:00;7.0;;;4.5;;
79147;SDS011;68562;51.600;6.524;2023-05-01T19:55:01;7.9;;;4.5;;
79147;SDS011;68562;51.600;6.524;2023-05-01T20:00:00;7.8;;;4.9;;
79147;SDS011;68562;51.600;6.524;2023-05-01T20:05:00;5.9;;;4.5;;
79147;SDS011;68562;51.600;6.524;2023-05-01T20:10:00;6.9;;;4.7;;
79147;SDS011;68562;51.600;6.524;2023-05-01T20:15:00;7.5;;;5.0;;
79147;SDS011;68562;51.600;6.524;2023-05-01T20:20:00;9.8;;;6.3;;
79147;SDS011;68562;51.600;6.524;2023-05-01T20:25:00;8.7;;;5.7;;
79147;SDS011;68562;51.600;6.524;2023-05-01T20:30:00;15.5;;;6.0;;
79147;SDS011;68562;51.600;6.524;2023-05-01T20:35:00;8.7;;;6.2;;
79147;SDS011;68562;51.600;6.524;2023-05-01T20:40:00;9.0;;;6.0;;
79147;SDS011;68562;51.600;6.524;2023-05-01T20:45:00;8.2;;;6.8;;
79147;SDS011;68562;51.600;6.524;2023-05-01T20:50:00;9.9;;;6.6;;
79147;SDS011;68562;51.600;6.524;2023-05-01T20:55:00;9.2;;;6.5;;
79147;SDS011;68562;51.600;6.524;2023-05-01T21:00:00;11.3;;;6.6;;
79147;SDS011;68562;51.600;6.524;2023-05-01T21:05:00;9.6;;;6.7;;
79147;SDS011;68562;51.600;6.524;2023-05-01T21:10:00;9.7;;;7.1;;
79147;SDS011;68562;51.600;6.524;2023-05-01T21:15:00;10.5;;;7.3;;
79147;SDS011;68562;51.600;6.524;2023-05-01T21:20:00;10.7;;;7.2;;
79147;SDS011;68562;51.600;6.524;2023-05-01T21:25:00;10.8;;;7.2;;
79147;SDS011;68562;51.600;6.524;2023-05-01T21:30:00;12.2;;;7.5;;
79147;SDS011;68562;51.600;6.524;2023-05-01T21:35:00;10.2;;;7.8;;
79147;SDS011;68562;51.600;6.524;2023-05-01T21:40:00;13.2;;;8.4;;
79147;SDS011;68562;51.600;6.524;2023-05-01T21:45:03;10.8;;;7.2;;
79147;SDS011;68562;51.600;6.524;2023-05-01T21:50:00;11.9;;;8.9;;
79147;SDS011;68562;51.600;6.524;2023-05-01T21:55:00;10.8;;;7.8;;
79147;SDS011;68562;51.600;6.524;2023-05-01T22:00:00;10.9;;;8.1;;
79147;SDS011;68562;51.600;6.524;2023-05-01T22:05:00;10.4;;;7.8;;
79147;SDS011;68562;51.600;6.524;2023-05-01T22:10:00;10.3;;;8.3;;
79147;SDS011;68562;51.600;6.524;2023-05-01T22:15:00;14.9;;;8.8;;
79147;SDS011;68562;51.600;6.524;2023-05-01T22:20:00;12.1;;;9.2;;
79147;SDS011;68562;51.600;6.524;2023-05-01T22:25:00;13.9;;;9.6;;
79147;SDS011;68562;51.600;6.524;2023-05-01T22:30:00;15.6;;;9.5;;
79147;SDS011;68562;51.600;6.524;2023-05-01T22:35:00;15.5;;;10.4;;
79147;SDS011;68562;51.600;6.524;2023-05-01T22:40:00;15.9;;;10.5;;
79147;SDS011;68562;51.600;6.524;2023-05-01T22:45:00;16.8;;;11.0;;
79147;SDS011;68562;51.600;6.524;2023-05-01T22:50:00;18.0;;;11.8;;
79147;SDS011;68562;51.600;6.524;2023-05-01T22:55:00;18.4;;;11.9;;
79147;SDS011;68562;51.600;6.524;2023-05-01T23:00:00;18.5;;;12.0;;
79147;SDS011;68562;51.600;6.524;2023-05-01T23:05:00;16.9;;;12.2;;
79147;SDS011;68562;51.600;6.524;2023-05-01T23:10:00;20.4;;;13.4;;
79147;SDS011;68562;51.600;6.524;2023-05-01T23:15:00;20.4;;;13.1;;
79147;SDS011;68562;51.600;6.524;2023-05-01T23:20:00;19.8;;;14.0;;
79147;SDS011;68562;51.600;6.524;2023-05-01T23:25:00;21.6;;;14.8;;
79147;SDS011;68562;51.600;6.524;2023-05-01T23:30:00;23.8;;;14.6;;
79147;SDS011;68562;51.600;6.524;2023-05-01T23:35:01;23.7;;;15.6;;
79147;SDS011;68562;51.600;6.524;2023-05-01T23:40:00;27.8;;;16.8;;
79147;SDS011;68562;51.600;6.524;2023-05-01T23:45:00;29.2;;;16.9;;
79147;SDS011;68562;51.600;6.524;2023-05-01T23:50:00;32.8;;;18.0;;
79147;SDS011;68562;51.600;6.524;2023-05-01T23:55:00;30.3;;;18.0;;
